sensor_id;sensor_type;location;lat;lon;timestamp;P1;durP1;ratioP1;P2;durP2;ratioP2
5060;SDS011;2549;52.128;21.068;2023-05-20T00:01:17;22.07;;;7.90;;
5060;SDS011;2549;52.128;21.068;2023-05-20T00:03:44;16.57;;;7.00;;
5060;SDS011;2549;52.128;21.068;2023-05-20T00:06:11;18.60;;;7.80;;
5060;SDS011;2549;52.128;21.068;2023-05-20T00:08:38;10.80;;;7.17;;
5060;SDS011;2549;52.128;21.068;2023-05-20T00:11:05;10.03;;;6.80;;
5060;SDS011;2549;52.128;21.068;2023-05-20T00:13:32;18.17;;;7.33;;
5060;SDS011;2549;52.128;21.068;2023-05-20T00:16:01;14.13;;;7.33;;
5060;SDS011;2549;52.128;21.068;2023-05-20T00:18:28;6.20;;;5.60;;
5060;SDS011;2549;52.128;21.068;2023-05-20T00:20:55;9.77;;;6.77;;
5060;SDS011;2549;52.128;21.068;2023-05-20T00:23:22;14.47;;;8.03;;
5060;SDS011;2549;52.128;21.068;2023-05-20T00:25:49;13.30;;;6.07;;
5060;SDS011;2549;52.128;21.068;2023-05-20T00:28:16;9.03;;;6.50;;
5060;SDS011;2549;52.128;21.068;2023-05-20T00:30:42;14.03;;;6.00;;
5060;SDS011;2549;52.128;21.068;2023-05-20T00:33:09;10.20;;;6.30;;
5060;SDS011;2549;52.128;21.068;2023-05-20T00:35:36;7.83;;;5.50;;
5060;SDS011;2549;52.128;21.068;2023-05-20T00:38:03;8.70;;;5.93;;
5060;SDS011;2549;52.128;21.068;2023-05-20T00:40:30;8.90;;;6.23;;
5060;SDS011;2549;52.128;21.068;2023-05-20T00:42:57;15.73;;;7.10;;
5060;SDS011;2549;52.128;21.068;2023-05-20T00:45:24;12.43;;;5.97;;
5060;SDS011;2549;52.128;21.068;2023-05-20T00:47:51;11.07;;;6.10;;
5060;SDS011;2549;52.128;21.068;2023-05-20T00:50:18;20.03;;;7.10;;
5060;SDS011;2549;52.128;21.068;2023-05-20T00:52:46;9.40;;;5.70;;
5060;SDS011;2549;52.128;21.068;2023-05-20T00:55:13;11.07;;;5.67;;
5060;SDS011;2549;52.128;21.068;2023-05-20T00:57:40;5.20;;;4.70;;
5060;SDS011;2549;52.128;21.068;2023-05-20T01:00:07;5.63;;;4.83;;
5060;SDS011;2549;52.128;21.068;2023-05-20T01:02:36;8.07;;;5.60;;
5060;SDS011;2549;52.128;21.068;2023-05-20T01:05:03;12.53;;;6.00;;
5060;SDS011;2549;52.128;21.068;2023-05-20T01:07:30;7.50;;;5.53;;
5060;SDS011;2549;52.128;21.068;2023-05-20T01:09:58;14.13;;;5.30;;
5060;SDS011;2549;52.128;21.068;2023-05-20T01:12:26;11.60;;;5.67;;
5060;SDS011;2549;52.128;21.068;2023-05-20T01:15:14;10.40;;;6.00;;
5060;SDS011;2549;52.128;21.068;2023-05-20T01:17:42;12.43;;;5.67;;
5060;SDS011;2549;52.128;21.068;2023-05-20T01:20:12;8.00;;;4.83;;
5060;SDS011;2549;52.128;21.068;2023-05-20T01:22:51;5.23;;;4.30;;
5060;SDS011;2549;52.128;21.068;2023-05-20T01:25:19;8.60;;;5.73;;
5060;SDS011;2549;52.128;21.068;2023-05-20T01:27:47;7.77;;;4.37;;
5060;SDS011;2549;52.128;21.068;2023-05-20T01:30:15;17.60;;;5.70;;
5060;SDS011;2549;52.128;21.068;2023-05-20T01:32:44;9.40;;;4.83;;
5060;SDS011;2549;52.128;21.068;2023-05-20T01:35:16;12.17;;;5.47;;
5060;SDS011;2549;52.128;21.068;2023-05-20T01:37:44;8.50;;;4.67;;
5060;SDS011;2549;52.128;21.068;2023-05-20T01:40:15;8.33;;;5.80;;
5060;SDS011;2549;52.128;21.068;2023-05-20T01:42:43;10.80;;;5.10;;
5060;SDS011;2549;52.128;21.068;2023-05-20T01:45:11;9.90;;;5.60;;
5060;SDS011;2549;52.128;21.068;2023-05-20T01:47:38;6.80;;;4.87;;
5060;SDS011;2549;52.128;21.068;2023-05-20T01:50:06;8.17;;;4.43;;
5060;SDS011;2549;52.128;21.068;2023-05-20T01:52:33;9.50;;;4.90;;
5060;SDS011;2549;52.128;21.068;2023-05-20T01:55:00;6.90;;;4.97;;
5060;SDS011;2549;52.128;21.068;2023-05-20T01:57:27;7.70;;;4.30;;
5060;SDS011;2549;52.128;21.068;2023-05-20T01:59:54;10.20;;;5.23;;
5060;SDS011;2549;52.128;21.068;2023-05-20T02:02:20;7.60;;;5.00;;
5060;SDS011;2549;52.128;21.068;2023-05-20T02:04:48;9.23;;;4.33;;
5060;SDS011;2549;52.128;21.068;2023-05-20T02:07:16;5.70;;;4.37;;
5060;SDS011;2549;52.128;21.068;2023-05-20T02:09:44;7.80;;;4.70;;
5060;SDS011;2549;52.128;21.068;2023-05-20T02:12:11;10.07;;;4.90;;
5060;SDS011;2549;52.128;21.068;2023-05-20T02:14:42;10.60;;;4.10;;
5060;SDS011;2549;52.128;21.068;2023-05-20T02:17:11;10.07;;;5.20;;
5060;SDS011;2549;52.128;21.068;2023-05-20T02:19:41;7.70;;;4.40;;
5060;SDS011;2549;52.128;21.068;2023-05-20T02:22:09;6.37;;;4.70;;
5060;SDS011;2549;52.128;21.068;2023-05-20T02:24:36;13.23;;;4.73;;
5060;SDS011;2549;52.128;21.068;2023-05-20T02:27:03;11.60;;;4.70;;
5060;SDS011;2549;52.128;21.068;2023-05-20T02:29:31;9.77;;;4.87;;
5060;SDS011;2549;52.128;21.068;2023-05-20T02:31:58;5.83;;;4.23;;
5060;SDS011;2549;52.128;21.068;2023-05-20T02:34:26;6.80;;;4.83;;
5060;SDS011;2549;52.128;21.068;2023-05-20T02:36:53;5.83;;;4.50;;
5060;SDS011;2549;52.128;21.068;2023-05-20T02:39:20;7.63;;;4.30;;
5060;SDS011;2549;52.128;21.068;2023-05-20T02:41:47;6.63;;;4.47;;
5060;SDS011;2549;52.128;21.068;2023-05-20T02:44:14;5.27;;;4.07;;
5060;SDS011;2549;52.128;21.068;2023-05-20T02:46:42;5.30;;;3.60;;
5060;SDS011;2549;52.128;21.068;2023-05-20T02:49:09;6.80;;;3.83;;
5060;SDS011;2549;52.128;21.068;2023-05-20T02:51:36;8.77;;;4.90;;
5060;SDS011;2549;52.128;21.068;2023-05-20T02:54:02;5.47;;;4.60;;
5060;SDS011;2549;52.128;21.068;2023-05-20T02:56:29;9.07;;;4.33;;
5060;SDS011;2549;52.128;21.068;2023-05-20T02:58:57;6.33;;;4.10;;
5060;SDS011;2549;52.128;21.068;2023-05-20T03:01:25;5.47;;;4.43;;
5060;SDS011;2549;52.128;21.068;2023-05-20T03:03:52;11.20;;;5.17;;
5060;SDS011;2549;52.128;21.068;2023-05-20T03:06:19;11.40;;;4.90;;
5060;SDS011;2549;52.128;21.068;2023-05-20T03:08:46;7.33;;;4.33;;
5060;SDS011;2549;52.128;21.068;2023-05-20T03:11:13;4.93;;;4.00;;
5060;SDS011;2549;52.128;21.068;2023-05-20T03:13:41;6.00;;;3.97;;
5060;SDS011;2549;52.128;21.068;2023-05-20T03:16:09;5.73;;;3.93;;
5060;SDS011;2549;52.128;21.068;2023-05-20T03:18:38;24.63;;;4.97;;
5060;SDS011;2549;52.128;21.068;2023-05-20T03:21:05;4.47;;;3.93;;
5060;SDS011;2549;52.128;21.068;2023-05-20T03:23:32;5.23;;;4.10;;
5060;SDS011;2549;52.128;21.068;2023-05-20T03:25:59;6.63;;;4.87;;
5060;SDS011;2549;52.128;21.068;2023-05-20T03:28:26;4.23;;;3.67;;
5060;SDS011;2549;52.128;21.068;2023-05-20T03:30:53;6.60;;;4.03;;
5060;SDS011;2549;52.128;21.068;2023-05-20T03:33:20;10.17;;;4.47;;
5060;SDS011;2549;52.128;21.068;2023-05-20T03:35:51;5.67;;;4.07;;
5060;SDS011;2549;52.128;21.068;2023-05-20T03:38:18;6.33;;;3.80;;
5060;SDS011;2549;52.128;21.068;2023-05-20T03:40:45;7.03;;;3.90;;
5060;SDS011;2549;52.128;21.068;2023-05-20T03:43:12;7.50;;;4.80;;
5060;SDS011;2549;52.128;21.068;2023-05-20T03:45:40;4.40;;;3.90;;
5060;SDS011;2549;52.128;21.068;2023-05-20T03:48:07;7.47;;;4.57;;
5060;SDS011;2549;52.128;21.068;2023-05-20T03:50:34;9.70;;;4.37;;
5060;SDS011;2549;52.128;21.068;2023-05-20T03:53:01;4.77;;;3.93;;
5060;SDS011;2549;52.128;21.068;2023-05-20T03:55:28;11.97;;;5.00;;
5060;SDS011;2549;52.128;21.068;2023-05-20T03:57:55;4.60;;;4.17;;
5060;SDS011;2549;52.128;21.068;2023-05-20T04:00:22;6.07;;;4.43;;
5060;SDS011;2549;52.128;21.068;2023-05-20T04:02:49;9.13;;;4.93;;
5060;SDS011;2549;52.128;21.068;2023-05-20T04:05:16;9.30;;;4.80;;
5060;SDS011;2549;52.128;21.068;2023-05-20T04:07:43;10.10;;;5.53;;
5060;SDS011;2549;52.128;21.068;2023-05-20T04:10:10;6.30;;;3.97;;
5060;SDS011;2549;52.128;21.068;2023-05-20T04:12:37;6.07;;;4.23;;
5060;SDS011;2549;52.128;21.068;2023-05-20T04:15:04;5.90;;;4.03;;
5060;SDS011;2549;52.128;21.068;2023-05-20T04:17:32;5.27;;;4.20;;
5060;SDS011;2549;52.128;21.068;2023-05-20T04:19:59;8.27;;;5.00;;
5060;SDS011;2549;52.128;21.068;2023-05-20T04:22:26;7.80;;;4.83;;
5060;SDS011;2549;52.128;21.068;2023-05-20T04:24:53;7.10;;;3.60;;
5060;SDS011;2549;52.128;21.068;2023-05-20T04:27:21;4.77;;;3.30;;
5060;SDS011;2549;52.128;21.068;2023-05-20T04:29:48;10.43;;;4.03;;
5060;SDS011;2549;52.128;21.068;2023-05-20T04:32:16;5.07;;;3.73;;
5060;SDS011;2549;52.128;21.068;2023-05-20T04:34:44;9.87;;;3.90;;
5060;SDS011;2549;52.128;21.068;2023-05-20T04:37:11;9.10;;;3.30;;
5060;SDS011;2549;52.128;21.068;2023-05-20T04:39:39;7.83;;;4.10;;
5060;SDS011;2549;52.128;21.068;2023-05-20T04:42:05;7.80;;;4.37;;
5060;SDS011;2549;52.128;21.068;2023-05-20T04:44:32;6.07;;;3.27;;
5060;SDS011;2549;52.128;21.068;2023-05-20T04:46:59;5.60;;;3.90;;
5060;SDS011;2549;52.128;21.068;2023-05-20T04:49:26;7.17;;;3.67;;
5060;SDS011;2549;52.128;21.068;2023-05-20T04:51:56;7.47;;;2.93;;
5060;SDS011;2549;52.128;21.068;2023-05-20T04:54:23;5.40;;;3.90;;
5060;SDS011;2549;52.128;21.068;2023-05-20T04:56:50;6.13;;;3.40;;
5060;SDS011;2549;52.128;21.068;2023-05-20T04:59:17;5.00;;;3.53;;
5060;SDS011;2549;52.128;21.068;2023-05-20T05:01:44;7.10;;;3.77;;
5060;SDS011;2549;52.128;21.068;2023-05-20T05:04:11;6.03;;;2.90;;
5060;SDS011;2549;52.128;21.068;2023-05-20T05:06:38;8.23;;;2.80;;
5060;SDS011;2549;52.128;21.068;2023-05-20T05:09:05;9.50;;;4.10;;
5060;SDS011;2549;52.128;21.068;2023-05-20T05:11:33;3.40;;;3.10;;
5060;SDS011;2549;52.128;21.068;2023-05-20T05:14:00;4.27;;;3.37;;
5060;SDS011;2549;52.128;21.068;2023-05-20T05:16:27;6.23;;;3.60;;
5060;SDS011;2549;52.128;21.068;2023-05-20T05:18:53;11.67;;;3.40;;
5060;SDS011;2549;52.128;21.068;2023-05-20T05:21:20;4.10;;;3.13;;
5060;SDS011;2549;52.128;21.068;2023-05-20T05:23:47;5.10;;;3.80;;
5060;SDS011;2549;52.128;21.068;2023-05-20T05:26:14;5.63;;;3.77;;
5060;SDS011;2549;52.128;21.068;2023-05-20T05:28:41;8.73;;;3.70;;
5060;SDS011;2549;52.128;21.068;2023-05-20T05:31:11;14.00;;;3.23;;
5060;SDS011;2549;52.128;21.068;2023-05-20T05:33:38;2.70;;;2.50;;
5060;SDS011;2549;52.128;21.068;2023-05-20T05:36:05;3.43;;;2.93;;
5060;SDS011;2549;52.128;21.068;2023-05-20T05:38:32;5.60;;;3.17;;
5060;SDS011;2549;52.128;21.068;2023-05-20T05:40:58;3.07;;;2.60;;
5060;SDS011;2549;52.128;21.068;2023-05-20T05:43:25;4.43;;;3.00;;
5060;SDS011;2549;52.128;21.068;2023-05-20T05:45:52;3.93;;;2.60;;
5060;SDS011;2549;52.128;21.068;2023-05-20T05:48:20;10.50;;;2.77;;
5060;SDS011;2549;52.128;21.068;2023-05-20T05:50:51;12.07;;;3.50;;
5060;SDS011;2549;52.128;21.068;2023-05-20T05:53:18;3.10;;;2.73;;
5060;SDS011;2549;52.128;21.068;2023-05-20T05:55:46;2.60;;;2.40;;
5060;SDS011;2549;52.128;21.068;2023-05-20T05:58:13;4.10;;;2.80;;
5060;SDS011;2549;52.128;21.068;2023-05-20T06:00:40;4.93;;;3.07;;
5060;SDS011;2549;52.128;21.068;2023-05-20T06:03:07;3.60;;;3.10;;
5060;SDS011;2549;52.128;21.068;2023-05-20T06:05:34;6.53;;;3.10;;
5060;SDS011;2549;52.128;21.068;2023-05-20T06:08:01;3.63;;;2.53;;
5060;SDS011;2549;52.128;21.068;2023-05-20T06:10:28;11.03;;;3.40;;
5060;SDS011;2549;52.128;21.068;2023-05-20T06:12:55;3.80;;;2.80;;
5060;SDS011;2549;52.128;21.068;2023-05-20T06:15:22;6.30;;;3.07;;
5060;SDS011;2549;52.128;21.068;2023-05-20T06:17:49;7.33;;;3.10;;
5060;SDS011;2549;52.128;21.068;2023-05-20T06:20:16;6.57;;;3.50;;
5060;SDS011;2549;52.128;21.068;2023-05-20T06:22:43;13.93;;;3.37;;
5060;SDS011;2549;52.128;21.068;2023-05-20T06:25:12;3.27;;;2.67;;
5060;SDS011;2549;52.128;21.068;2023-05-20T06:27:40;4.40;;;3.13;;
5060;SDS011;2549;52.128;21.068;2023-05-20T06:30:07;4.50;;;2.80;;
5060;SDS011;2549;52.128;21.068;2023-05-20T06:32:34;8.33;;;2.97;;
5060;SDS011;2549;52.128;21.068;2023-05-20T06:35:01;6.80;;;3.37;;
5060;SDS011;2549;52.128;21.068;2023-05-20T06:37:28;4.30;;;3.03;;
5060;SDS011;2549;52.128;21.068;2023-05-20T06:39:54;5.40;;;3.37;;
5060;SDS011;2549;52.128;21.068;2023-05-20T06:42:21;4.33;;;3.30;;
5060;SDS011;2549;52.128;21.068;2023-05-20T06:44:49;2.90;;;2.33;;
5060;SDS011;2549;52.128;21.068;2023-05-20T06:47:16;4.60;;;2.73;;
5060;SDS011;2549;52.128;21.068;2023-05-20T06:49:43;4.23;;;2.90;;
5060;SDS011;2549;52.128;21.068;2023-05-20T06:52:12;3.13;;;2.80;;
5060;SDS011;2549;52.128;21.068;2023-05-20T06:54:39;7.33;;;3.33;;
5060;SDS011;2549;52.128;21.068;2023-05-20T06:57:07;3.67;;;2.33;;
5060;SDS011;2549;52.128;21.068;2023-05-20T06:59:35;3.13;;;2.83;;
5060;SDS011;2549;52.128;21.068;2023-05-20T07:02:02;9.37;;;3.33;;
5060;SDS011;2549;52.128;21.068;2023-05-20T07:04:31;3.63;;;3.33;;
5060;SDS011;2549;52.128;21.068;2023-05-20T07:06:57;5.43;;;3.47;;
5060;SDS011;2549;52.128;21.068;2023-05-20T07:09:24;4.43;;;3.93;;
5060;SDS011;2549;52.128;21.068;2023-05-20T07:11:51;13.07;;;3.47;;
5060;SDS011;2549;52.128;21.068;2023-05-20T07:14:18;10.63;;;3.37;;
5060;SDS011;2549;52.128;21.068;2023-05-20T07:16:45;3.70;;;2.73;;
5060;SDS011;2549;52.128;21.068;2023-05-20T07:19:12;6.40;;;2.47;;
5060;SDS011;2549;52.128;21.068;2023-05-20T07:21:39;5.10;;;2.80;;
5060;SDS011;2549;52.128;21.068;2023-05-20T07:24:06;6.23;;;2.83;;
5060;SDS011;2549;52.128;21.068;2023-05-20T07:26:42;3.10;;;2.63;;
5060;SDS011;2549;52.128;21.068;2023-05-20T07:32:49;3.33;;;3.00;;
5060;SDS011;2549;52.128;21.068;2023-05-20T07:38:57;4.30;;;3.17;;
5060;SDS011;2549;52.128;21.068;2023-05-20T07:41:30;7.13;;;3.60;;
5060;SDS011;2549;52.128;21.068;2023-05-20T07:44:01;12.33;;;3.40;;
5060;SDS011;2549;52.128;21.068;2023-05-20T07:46:29;5.00;;;2.70;;
5060;SDS011;2549;52.128;21.068;2023-05-20T07:48:56;5.90;;;2.93;;
5060;SDS011;2549;52.128;21.068;2023-05-20T07:51:23;8.03;;;3.20;;
5060;SDS011;2549;52.128;21.068;2023-05-20T07:53:50;4.90;;;2.73;;
5060;SDS011;2549;52.128;21.068;2023-05-20T07:56:20;3.60;;;3.00;;
5060;SDS011;2549;52.128;21.068;2023-05-20T07:58:54;8.30;;;2.97;;
5060;SDS011;2549;52.128;21.068;2023-05-20T08:01:24;4.10;;;3.30;;
5060;SDS011;2549;52.128;21.068;2023-05-20T08:03:52;3.83;;;2.53;;
5060;SDS011;2549;52.128;21.068;2023-05-20T08:06:19;10.70;;;3.13;;
5060;SDS011;2549;52.128;21.068;2023-05-20T08:08:46;4.93;;;2.53;;
5060;SDS011;2549;52.128;21.068;2023-05-20T08:11:13;11.43;;;3.00;;
5060;SDS011;2549;52.128;21.068;2023-05-20T08:13:40;3.13;;;2.83;;
5060;SDS011;2549;52.128;21.068;2023-05-20T08:16:07;14.90;;;4.30;;
5060;SDS011;2549;52.128;21.068;2023-05-20T08:18:34;5.93;;;3.03;;
5060;SDS011;2549;52.128;21.068;2023-05-20T08:21:04;7.87;;;3.23;;
5060;SDS011;2549;52.128;21.068;2023-05-20T08:23:35;3.83;;;2.70;;
5060;SDS011;2549;52.128;21.068;2023-05-20T08:26:05;2.77;;;2.50;;
5060;SDS011;2549;52.128;21.068;2023-05-20T08:28:33;3.67;;;3.27;;
5060;SDS011;2549;52.128;21.068;2023-05-20T08:31:02;5.60;;;2.73;;
5060;SDS011;2549;52.128;21.068;2023-05-20T08:33:29;8.30;;;2.57;;
5060;SDS011;2549;52.128;21.068;2023-05-20T08:35:56;5.30;;;3.27;;
5060;SDS011;2549;52.128;21.068;2023-05-20T08:38:23;3.07;;;2.87;;
5060;SDS011;2549;52.128;21.068;2023-05-20T08:40:53;6.30;;;2.83;;
5060;SDS011;2549;52.128;21.068;2023-05-20T08:43:22;4.93;;;3.00;;
5060;SDS011;2549;52.128;21.068;2023-05-20T08:45:49;3.30;;;2.80;;
5060;SDS011;2549;52.128;21.068;2023-05-20T08:48:21;4.73;;;2.73;;
5060;SDS011;2549;52.128;21.068;2023-05-20T08:50:51;7.90;;;2.50;;
5060;SDS011;2549;52.128;21.068;2023-05-20T08:53:21;5.50;;;2.70;;
5060;SDS011;2549;52.128;21.068;2023-05-20T08:55:52;6.50;;;3.60;;
5060;SDS011;2549;52.128;21.068;2023-05-20T08:58:26;7.30;;;4.27;;
5060;SDS011;2549;52.128;21.068;2023-05-20T09:00:58;10.27;;;3.70;;
5060;SDS011;2549;52.128;21.068;2023-05-20T09:03:25;3.63;;;3.00;;
5060;SDS011;2549;52.128;21.068;2023-05-20T09:05:52;7.33;;;3.60;;
5060;SDS011;2549;52.128;21.068;2023-05-20T09:08:28;4.70;;;3.60;;
5060;SDS011;2549;52.128;21.068;2023-05-20T09:10:56;7.00;;;3.70;;
5060;SDS011;2549;52.128;21.068;2023-05-20T09:13:23;8.43;;;3.40;;
5060;SDS011;2549;52.128;21.068;2023-05-20T09:15:50;4.77;;;3.23;;
5060;SDS011;2549;52.128;21.068;2023-05-20T09:18:17;3.70;;;3.40;;
5060;SDS011;2549;52.128;21.068;2023-05-20T09:20:46;11.03;;;2.80;;
5060;SDS011;2549;52.128;21.068;2023-05-20T09:23:17;5.97;;;3.27;;
5060;SDS011;2549;52.128;21.068;2023-05-20T09:25:47;4.37;;;2.93;;
5060;SDS011;2549;52.128;21.068;2023-05-20T09:28:15;4.60;;;3.07;;
5060;SDS011;2549;52.128;21.068;2023-05-20T09:30:43;4.80;;;3.23;;
5060;SDS011;2549;52.128;21.068;2023-05-20T09:33:11;29.00;;;6.00;;
5060;SDS011;2549;52.128;21.068;2023-05-20T09:35:39;6.17;;;3.80;;
5060;SDS011;2549;52.128;21.068;2023-05-20T09:38:06;4.33;;;3.43;;
5060;SDS011;2549;52.128;21.068;2023-05-20T09:40:35;3.67;;;3.37;;
5060;SDS011;2549;52.128;21.068;2023-05-20T09:43:06;6.03;;;4.00;;
5060;SDS011;2549;52.128;21.068;2023-05-20T09:45:34;4.53;;;3.50;;
5060;SDS011;2549;52.128;21.068;2023-05-20T09:48:01;4.50;;;3.77;;
5060;SDS011;2549;52.128;21.068;2023-05-20T09:50:31;17.63;;;5.00;;
5060;SDS011;2549;52.128;21.068;2023-05-20T09:53:00;12.00;;;3.20;;
5060;SDS011;2549;52.128;21.068;2023-05-20T09:55:28;5.80;;;3.57;;
5060;SDS011;2549;52.128;21.068;2023-05-20T09:57:57;14.17;;;3.87;;
5060;SDS011;2549;52.128;21.068;2023-05-20T10:00:28;6.13;;;3.87;;
5060;SDS011;2549;52.128;21.068;2023-05-20T10:02:55;5.80;;;4.00;;
5060;SDS011;2549;52.128;21.068;2023-05-20T10:05:25;6.93;;;4.10;;
5060;SDS011;2549;52.128;21.068;2023-05-20T10:21:38;6.13;;;3.77;;
5060;SDS011;2549;52.128;21.068;2023-05-20T10:24:06;3.87;;;3.47;;
5060;SDS011;2549;52.128;21.068;2023-05-20T10:26:36;6.00;;;3.77;;
5060;SDS011;2549;52.128;21.068;2023-05-20T10:29:17;3.43;;;2.93;;
5060;SDS011;2549;52.128;21.068;2023-05-20T10:31:48;9.10;;;3.53;;
5060;SDS011;2549;52.128;21.068;2023-05-20T10:34:18;7.53;;;4.00;;
5060;SDS011;2549;52.128;21.068;2023-05-20T10:37:06;14.80;;;3.63;;
5060;SDS011;2549;52.128;21.068;2023-05-20T10:39:33;7.03;;;3.67;;
5060;SDS011;2549;52.128;21.068;2023-05-20T10:44:43;8.33;;;4.30;;
5060;SDS011;2549;52.128;21.068;2023-05-20T10:47:12;5.07;;;4.27;;
5060;SDS011;2549;52.128;21.068;2023-05-20T10:49:45;6.17;;;3.70;;
5060;SDS011;2549;52.128;21.068;2023-05-20T10:52:12;7.50;;;4.10;;
5060;SDS011;2549;52.128;21.068;2023-05-20T10:54:59;12.10;;;5.10;;
5060;SDS011;2549;52.128;21.068;2023-05-20T10:57:27;6.87;;;3.97;;
5060;SDS011;2549;52.128;21.068;2023-05-20T10:59:55;19.90;;;5.80;;
5060;SDS011;2549;52.128;21.068;2023-05-20T11:02:22;13.83;;;4.83;;
5060;SDS011;2549;52.128;21.068;2023-05-20T11:04:57;6.27;;;3.67;;
5060;SDS011;2549;52.128;21.068;2023-05-20T11:07:25;4.63;;;3.60;;
5060;SDS011;2549;52.128;21.068;2023-05-20T11:09:54;11.63;;;4.87;;
5060;SDS011;2549;52.128;21.068;2023-05-20T11:12:22;77.53;;;8.53;;
5060;SDS011;2549;52.128;21.068;2023-05-20T11:14:51;9.37;;;4.33;;
5060;SDS011;2549;52.128;21.068;2023-05-20T11:17:18;4.23;;;3.80;;
5060;SDS011;2549;52.128;21.068;2023-05-20T11:19:46;7.67;;;3.97;;
5060;SDS011;2549;52.128;21.068;2023-05-20T11:22:13;47.90;;;7.43;;
5060;SDS011;2549;52.128;21.068;2023-05-20T11:24:40;12.90;;;4.60;;
5060;SDS011;2549;52.128;21.068;2023-05-20T11:27:07;4.00;;;3.70;;
5060;SDS011;2549;52.128;21.068;2023-05-20T11:29:34;6.90;;;3.40;;
5060;SDS011;2549;52.128;21.068;2023-05-20T11:32:02;4.00;;;3.70;;
5060;SDS011;2549;52.128;21.068;2023-05-20T11:34:36;4.00;;;3.70;;
5060;SDS011;2549;52.128;21.068;2023-05-20T11:37:07;7.10;;;3.77;;
5060;SDS011;2549;52.128;21.068;2023-05-20T11:39:36;4.70;;;3.60;;
5060;SDS011;2549;52.128;21.068;2023-05-20T11:42:03;7.67;;;4.10;;
5060;SDS011;2549;52.128;21.068;2023-05-20T11:44:31;7.53;;;3.90;;
5060;SDS011;2549;52.128;21.068;2023-05-20T11:46:59;3.63;;;3.43;;
5060;SDS011;2549;52.128;21.068;2023-05-20T11:49:27;7.40;;;4.20;;
5060;SDS011;2549;52.128;21.068;2023-05-20T11:51:55;7.03;;;4.77;;
5060;SDS011;2549;52.128;21.068;2023-05-20T11:54:22;12.77;;;4.30;;
5060;SDS011;2549;52.128;21.068;2023-05-20T11:56:50;5.80;;;3.43;;
5060;SDS011;2549;52.128;21.068;2023-05-20T11:59:19;8.70;;;3.50;;
5060;SDS011;2549;52.128;21.068;2023-05-20T12:01:49;3.87;;;3.57;;
5060;SDS011;2549;52.128;21.068;2023-05-20T12:04:16;20.33;;;4.20;;
5060;SDS011;2549;52.128;21.068;2023-05-20T12:06:44;14.20;;;4.20;;
5060;SDS011;2549;52.128;21.068;2023-05-20T12:09:12;3.93;;;3.63;;
5060;SDS011;2549;52.128;21.068;2023-05-20T12:11:39;4.43;;;4.03;;
5060;SDS011;2549;52.128;21.068;2023-05-20T12:14:07;4.73;;;3.50;;
5060;SDS011;2549;52.128;21.068;2023-05-20T12:16:34;4.73;;;4.10;;
5060;SDS011;2549;52.128;21.068;2023-05-20T12:19:04;7.37;;;4.63;;
5060;SDS011;2549;52.128;21.068;2023-05-20T12:21:31;9.67;;;4.40;;
5060;SDS011;2549;52.128;21.068;2023-05-20T12:23:58;6.50;;;4.50;;
5060;SDS011;2549;52.128;21.068;2023-05-20T12:26:26;5.37;;;4.50;;
5060;SDS011;2549;52.128;21.068;2023-05-20T12:28:53;4.23;;;3.60;;
5060;SDS011;2549;52.128;21.068;2023-05-20T12:31:21;5.70;;;3.80;;
5060;SDS011;2549;52.128;21.068;2023-05-20T12:33:48;5.73;;;3.80;;
5060;SDS011;2549;52.128;21.068;2023-05-20T12:36:17;4.60;;;4.10;;
5060;SDS011;2549;52.128;21.068;2023-05-20T12:38:45;8.40;;;3.97;;
5060;SDS011;2549;52.128;21.068;2023-05-20T12:41:12;4.37;;;3.97;;
5060;SDS011;2549;52.128;21.068;2023-05-20T12:43:39;6.47;;;3.60;;
5060;SDS011;2549;52.128;21.068;2023-05-20T12:46:06;6.50;;;4.37;;
5060;SDS011;2549;52.128;21.068;2023-05-20T12:48:33;11.37;;;4.50;;
5060;SDS011;2549;52.128;21.068;2023-05-20T12:51:00;4.17;;;3.77;;
5060;SDS011;2549;52.128;21.068;2023-05-20T12:53:27;6.60;;;3.70;;
5060;SDS011;2549;52.128;21.068;2023-05-20T12:55:54;9.23;;;3.60;;
5060;SDS011;2549;52.128;21.068;2023-05-20T12:58:21;7.20;;;4.07;;
5060;SDS011;2549;52.128;21.068;2023-05-20T13:00:48;15.53;;;5.27;;
5060;SDS011;2549;52.128;21.068;2023-05-20T13:03:15;5.90;;;4.47;;
5060;SDS011;2549;52.128;21.068;2023-05-20T13:05:42;6.40;;;4.40;;
5060;SDS011;2549;52.128;21.068;2023-05-20T13:08:09;4.73;;;3.43;;
5060;SDS011;2549;52.128;21.068;2023-05-20T13:10:37;10.13;;;4.80;;
5060;SDS011;2549;52.128;21.068;2023-05-20T13:13:04;4.03;;;3.70;;
5060;SDS011;2549;52.128;21.068;2023-05-20T13:15:31;5.47;;;4.17;;
5060;SDS011;2549;52.128;21.068;2023-05-20T13:17:59;4.80;;;4.20;;
5060;SDS011;2549;52.128;21.068;2023-05-20T13:20:28;10.80;;;4.27;;
5060;SDS011;2549;52.128;21.068;2023-05-20T13:22:55;3.73;;;3.43;;
5060;SDS011;2549;52.128;21.068;2023-05-20T13:25:22;6.63;;;4.83;;
5060;SDS011;2549;52.128;21.068;2023-05-20T13:27:49;5.90;;;3.63;;
5060;SDS011;2549;52.128;21.068;2023-05-20T13:30:16;7.33;;;4.37;;
5060;SDS011;2549;52.128;21.068;2023-05-20T13:32:43;4.40;;;4.00;;
5060;SDS011;2549;52.128;21.068;2023-05-20T13:35:10;4.53;;;4.10;;
5060;SDS011;2549;52.128;21.068;2023-05-20T13:37:38;5.30;;;4.37;;
5060;SDS011;2549;52.128;21.068;2023-05-20T13:40:05;13.40;;;4.10;;
5060;SDS011;2549;52.128;21.068;2023-05-20T13:42:32;4.93;;;3.63;;
5060;SDS011;2549;52.128;21.068;2023-05-20T13:44:59;5.03;;;3.70;;
5060;SDS011;2549;52.128;21.068;2023-05-20T13:47:26;8.00;;;4.50;;
5060;SDS011;2549;52.128;21.068;2023-05-20T13:49:53;7.00;;;4.60;;
5060;SDS011;2549;52.128;21.068;2023-05-20T13:52:20;6.90;;;4.67;;
5060;SDS011;2549;52.128;21.068;2023-05-20T13:54:47;8.13;;;4.20;;
5060;SDS011;2549;52.128;21.068;2023-05-20T13:57:14;7.83;;;4.07;;
5060;SDS011;2549;52.128;21.068;2023-05-20T13:59:41;5.80;;;4.67;;
5060;SDS011;2549;52.128;21.068;2023-05-20T14:02:09;5.40;;;4.17;;
5060;SDS011;2549;52.128;21.068;2023-05-20T14:04:36;5.93;;;3.83;;
5060;SDS011;2549;52.128;21.068;2023-05-20T14:07:05;5.20;;;3.70;;
5060;SDS011;2549;52.128;21.068;2023-05-20T14:09:35;4.37;;;4.03;;
5060;SDS011;2549;52.128;21.068;2023-05-20T14:12:02;12.23;;;3.87;;
5060;SDS011;2549;52.128;21.068;2023-05-20T14:14:29;3.60;;;3.30;;
5060;SDS011;2549;52.128;21.068;2023-05-20T14:16:56;5.00;;;3.80;;
5060;SDS011;2549;52.128;21.068;2023-05-20T14:19:23;6.33;;;4.13;;
5060;SDS011;2549;52.128;21.068;2023-05-20T14:21:51;3.63;;;3.40;;
5060;SDS011;2549;52.128;21.068;2023-05-20T14:24:18;4.17;;;3.70;;
5060;SDS011;2549;52.128;21.068;2023-05-20T14:26:48;5.23;;;4.20;;
5060;SDS011;2549;52.128;21.068;2023-05-20T14:29:14;4.37;;;4.00;;
5060;SDS011;2549;52.128;21.068;2023-05-20T14:31:41;9.53;;;4.57;;
5060;SDS011;2549;52.128;21.068;2023-05-20T14:34:08;12.53;;;4.23;;
5060;SDS011;2549;52.128;21.068;2023-05-20T14:36:36;5.27;;;3.93;;
5060;SDS011;2549;52.128;21.068;2023-05-20T14:39:05;9.07;;;3.70;;
5060;SDS011;2549;52.128;21.068;2023-05-20T14:41:32;8.67;;;4.60;;
5060;SDS011;2549;52.128;21.068;2023-05-20T14:43:58;6.33;;;3.90;;
5060;SDS011;2549;52.128;21.068;2023-05-20T14:46:25;7.73;;;4.53;;
5060;SDS011;2549;52.128;21.068;2023-05-20T14:48:52;5.73;;;4.33;;
5060;SDS011;2549;52.128;21.068;2023-05-20T14:51:19;8.00;;;4.10;;
5060;SDS011;2549;52.128;21.068;2023-05-20T14:53:46;6.40;;;4.47;;
5060;SDS011;2549;52.128;21.068;2023-05-20T14:56:13;5.63;;;3.60;;
5060;SDS011;2549;52.128;21.068;2023-05-20T14:58:40;3.90;;;3.57;;
5060;SDS011;2549;52.128;21.068;2023-05-20T15:01:07;3.80;;;3.40;;
5060;SDS011;2549;52.128;21.068;2023-05-20T15:03:34;4.20;;;3.80;;
5060;SDS011;2549;52.128;21.068;2023-05-20T15:06:01;3.47;;;3.17;;
5060;SDS011;2549;52.128;21.068;2023-05-20T15:08:28;7.60;;;3.53;;
5060;SDS011;2549;52.128;21.068;2023-05-20T15:10:55;6.03;;;4.17;;
5060;SDS011;2549;52.128;21.068;2023-05-20T15:13:22;5.87;;;4.13;;
5060;SDS011;2549;52.128;21.068;2023-05-20T15:15:48;9.33;;;4.00;;
5060;SDS011;2549;52.128;21.068;2023-05-20T15:18:15;6.60;;;3.77;;
5060;SDS011;2549;52.128;21.068;2023-05-20T15:20:42;3.60;;;3.30;;
5060;SDS011;2549;52.128;21.068;2023-05-20T15:23:10;6.60;;;4.30;;
5060;SDS011;2549;52.128;21.068;2023-05-20T15:25:36;8.70;;;4.07;;